createdAt,value
2018-06-08T00:01:26.666Z,19.84
2018-06-08T00:03:55.317Z,19.85
2018-06-08T00:06:24.173Z,19.97
2018-06-08T00:08:52.447Z,19.81
2018-06-08T00:11:20.838Z,19.97
2018-06-08T00:13:49.582Z,20.21
2018-06-08T00:16:24.672Z,20.05
2018-06-08T00:18:52.975Z,20.14
2018-06-08T00:21:21.364Z,20.17
2018-06-08T00:23:50.297Z,20.05
2018-06-08T00:26:19.189Z,19.78
2018-06-08T00:28:47.915Z,19.90
2018-06-08T00:31:16.171Z,19.92
2018-06-08T00:33:50.164Z,19.93
2018-06-08T00:36:18.296Z,19.89
2018-06-08T00:38:46.658Z,19.96
2018-06-08T00:41:15.027Z,18.81
2018-06-08T00:43:43.161Z,19.77
2018-06-08T00:46:11.685Z,20.08
2018-06-08T00:48:39.970Z,19.91
2018-06-08T00:51:08.087Z,19.80
2018-06-08T00:53:36.165Z,19.63
2018-06-08T00:56:04.397Z,19.79
2018-06-08T00:58:32.754Z,19.70
2018-06-08T01:01:00.823Z,19.77
2018-06-08T01:03:28.965Z,19.52
2018-06-08T01:05:57.227Z,19.64
2018-06-08T01:08:25.341Z,19.57
2018-06-08T01:10:53.470Z,19.71
2018-06-08T01:13:21.563Z,19.74
2018-06-08T01:15:49.803Z,19.73
2018-06-08T01:18:17.893Z,19.48
2018-06-08T01:20:46.058Z,19.41
2018-06-08T01:23:14.778Z,19.31
2018-06-08T01:25:42.878Z,19.59
2018-06-08T01:28:10.980Z,19.52
2018-06-08T01:30:39.139Z,19.36
2018-06-08T01:33:07.340Z,19.36
2018-06-08T01:35:35.582Z,19.36
2018-06-08T01:38:03.739Z,19.17
2018-06-08T01:40:31.844Z,19.33
2018-06-08T01:42:59.965Z,19.38
2018-06-08T01:45:28.115Z,19.29
2018-06-08T01:47:57.270Z,19.16
2018-06-08T01:50:25.414Z,19.13
2018-06-08T01:52:53.575Z,19.26
2018-06-08T01:55:21.855Z,19.04
2018-06-08T01:57:50.924Z,19.09
2018-06-08T02:00:19.185Z,19.15
2018-06-08T02:02:47.275Z,19.13
2018-06-08T02:05:16.008Z,18.95
2018-06-08T02:07:44.132Z,18.86
2018-06-08T02:10:12.303Z,19.02
2018-06-08T02:12:40.693Z,19.15
2018-06-08T02:15:08.846Z,19.05
2018-06-08T02:17:36.980Z,19.12
2018-06-08T02:20:05.071Z,19.07
2018-06-08T02:22:33.282Z,19.00
2018-06-08T02:25:01.410Z,19.00
2018-06-08T02:27:29.486Z,19.14
2018-06-08T02:29:57.572Z,18.76
2018-06-08T02:32:25.674Z,18.68
2018-06-08T02:34:53.803Z,18.91
2018-06-08T02:37:22.014Z,18.88
2018-06-08T02:39:50.197Z,19.09
2018-06-08T02:42:18.338Z,18.97
2018-06-08T02:44:46.540Z,18.82
2018-06-08T02:47:14.711Z,18.65
2018-06-08T02:49:42.883Z,18.55
2018-06-08T02:52:11.016Z,18.62
2018-06-08T02:54:39.122Z,18.70
2018-06-08T02:57:07.331Z,18.65
2018-06-08T02:59:35.459Z,18.53
2018-06-08T03:02:03.665Z,18.50
2018-06-08T03:04:31.732Z,18.67
2018-06-08T03:06:59.952Z,18.71
2018-06-08T03:09:28.057Z,18.66
2018-06-08T03:11:56.303Z,18.64
2018-06-08T03:14:24.720Z,18.60
2018-06-08T03:16:52.936Z,18.61
2018-06-08T03:19:22.233Z,18.77
2018-06-08T03:21:50.318Z,18.75
2018-06-08T03:24:18.407Z,18.77
2018-06-08T03:26:46.479Z,18.73
2018-06-08T03:29:14.621Z,18.74
2018-06-08T03:31:42.723Z,18.66
2018-06-08T03:34:10.876Z,18.62
2018-06-08T03:36:39.101Z,18.72
2018-06-08T03:39:08.232Z,18.70
2018-06-08T03:41:36.485Z,18.88
2018-06-08T03:44:04.629Z,18.96
2018-06-08T03:46:32.749Z,18.80
2018-06-08T03:49:00.967Z,18.83
2018-06-08T03:51:29.117Z,18.98
2018-06-08T03:53:57.748Z,19.14
2018-06-08T03:56:26.892Z,19.02
2018-06-08T03:58:55.086Z,19.05
2018-06-08T04:01:23.222Z,19.04
2018-06-08T04:03:51.412Z,18.93
2018-06-08T04:06:19.732Z,18.98
2018-06-08T04:08:48.083Z,19.32
2018-06-08T04:11:16.322Z,19.41
2018-06-08T04:13:45.022Z,19.31
2018-06-08T04:16:13.143Z,19.29
2018-06-08T04:18:43.063Z,19.39
2018-06-08T04:21:11.917Z,19.62
2018-06-08T04:23:40.323Z,19.59
2018-06-08T04:26:08.702Z,19.60
2018-06-08T04:28:36.907Z,19.53
2018-06-08T04:31:05.822Z,19.62
2018-06-08T04:33:34.240Z,19.82
2018-06-08T04:36:02.814Z,19.81
2018-06-08T04:38:31.043Z,19.82
2018-06-08T04:40:59.324Z,19.72
2018-06-08T04:43:27.526Z,20.00
2018-06-08T04:45:56.443Z,20.09
2018-06-08T04:48:24.899Z,20.17
2018-06-08T04:50:53.074Z,20.29
2018-06-08T04:53:21.706Z,20.33
2018-06-08T04:55:50.045Z,20.32
2018-06-08T04:58:18.386Z,20.34
2018-06-08T05:00:46.598Z,20.12
2018-06-08T05:03:14.863Z,20.07
2018-06-08T05:05:43.090Z,19.97
2018-06-08T05:08:11.712Z,20.34
2018-06-08T05:10:39.898Z,20.40
2018-06-08T05:13:08.107Z,20.58
2018-06-08T05:15:36.182Z,20.51
2018-06-08T05:18:04.411Z,20.77
2018-06-08T05:20:32.893Z,20.97
2018-06-08T05:23:00.990Z,21.01
2018-06-08T05:25:29.261Z,21.10
2018-06-08T05:27:57.473Z,21.07
2018-06-08T05:30:26.431Z,21.13
2018-06-08T05:32:54.570Z,21.32
2018-06-08T05:35:22.853Z,21.34
2018-06-08T05:37:51.065Z,21.19
2018-06-08T05:40:19.193Z,21.52
2018-06-08T05:42:47.395Z,22.20
2018-06-08T05:45:15.540Z,23.28
2018-06-08T05:47:43.678Z,23.89
2018-06-08T05:50:11.980Z,24.32
2018-06-08T05:52:40.128Z,24.81
2018-06-08T05:55:08.295Z,24.64
2018-06-08T05:57:37.021Z,25.27
2018-06-08T06:00:05.545Z,25.08
2018-06-08T06:02:33.790Z,25.41
2018-06-08T06:05:01.952Z,25.80
2018-06-08T06:07:30.079Z,25.95
2018-06-08T06:09:58.313Z,27.21
2018-06-08T06:12:26.475Z,27.43
2018-06-08T06:14:54.685Z,25.78
2018-06-08T06:17:22.794Z,25.33
2018-06-08T06:19:50.956Z,27.11
2018-06-08T06:22:19.114Z,27.60
2018-06-08T06:24:47.308Z,28.39
2018-06-08T06:27:15.498Z,27.47
2018-06-08T06:29:43.694Z,26.54
2018-06-08T06:32:11.819Z,27.89
2018-06-08T06:34:40.380Z,26.61
2018-06-08T06:37:08.692Z,26.92
2018-06-08T06:39:36.906Z,26.31
2018-06-08T06:42:05.187Z,26.86
2018-06-08T06:44:33.450Z,28.10
2018-06-08T06:47:01.665Z,28.86
2018-06-08T06:49:29.911Z,28.92
2018-06-08T06:51:58.109Z,29.06
2018-06-08T06:54:26.339Z,29.32
2018-06-08T06:56:54.654Z,26.67
2018-06-08T06:59:22.973Z,25.96
2018-06-08T07:01:51.164Z,26.05
2018-06-08T07:04:19.477Z,26.07
2018-06-08T07:06:47.519Z,27.37
2018-06-08T07:09:15.617Z,26.49
2018-06-08T07:11:44.040Z,25.15
2018-06-08T07:14:12.189Z,25.94
2018-06-08T07:16:40.437Z,25.18
2018-06-08T07:19:13.034Z,24.71
2018-06-08T07:21:41.160Z,24.25
2018-06-08T07:24:09.429Z,23.67
2018-06-08T07:26:37.678Z,23.46
2018-06-08T07:29:05.854Z,22.94
2018-06-08T07:31:34.089Z,22.86
2018-06-08T07:34:02.260Z,22.97
2018-06-08T07:36:30.553Z,23.01
2018-06-08T07:38:58.750Z,23.11
2018-06-08T07:41:26.994Z,23.16
2018-06-08T07:43:55.049Z,23.59
2018-06-08T07:46:23.303Z,23.39
2018-06-08T07:48:51.447Z,23.64
2018-06-08T07:51:19.683Z,23.64
2018-06-08T07:53:48.196Z,23.77
2018-06-08T07:56:16.472Z,23.72
2018-06-08T07:58:44.640Z,23.85
2018-06-08T08:01:12.790Z,23.95
2018-06-08T08:03:41.067Z,24.19
2018-06-08T08:06:09.281Z,24.28
2018-06-08T08:08:37.418Z,24.42
2018-06-08T08:11:05.545Z,24.22
2018-06-08T08:13:33.750Z,24.41
2018-06-08T08:16:01.823Z,25.46
2018-06-08T08:18:29.937Z,25.65
2018-06-08T08:20:58.156Z,25.12
2018-06-08T08:23:26.253Z,25.15
2018-06-08T08:25:55.139Z,24.49
2018-06-08T08:28:23.288Z,25.35
2018-06-08T08:30:51.802Z,25.12
2018-06-08T08:33:20.037Z,25.13
2018-06-08T08:35:48.235Z,25.34
2018-06-08T08:38:16.335Z,25.02
2018-06-08T08:40:44.518Z,25.07
2018-06-08T08:43:12.667Z,24.95
2018-06-08T08:45:40.673Z,24.72
2018-06-08T08:48:08.748Z,24.92
2018-06-08T08:50:36.821Z,24.59
2018-06-08T08:53:05.124Z,24.18
2018-06-08T08:55:33.496Z,24.28
2018-06-08T08:58:01.629Z,24.48
2018-06-08T09:00:29.794Z,24.97
2018-06-08T09:02:58.006Z,25.15
2018-06-08T09:05:26.427Z,25.78
2018-06-08T09:07:54.525Z,25.95
2018-06-08T09:10:22.697Z,25.35
2018-06-08T09:12:50.804Z,25.13
2018-06-08T09:15:19.004Z,25.12
2018-06-08T09:17:47.370Z,25.04
2018-06-08T09:20:15.487Z,25.05
2018-06-08T09:22:43.565Z,25.47
2018-06-08T09:25:11.794Z,25.25
2018-06-08T09:27:39.951Z,24.92
2018-06-08T09:30:08.143Z,25.00
2018-06-08T09:32:36.289Z,25.53
2018-06-08T09:35:04.483Z,25.38
2018-06-08T09:37:32.581Z,25.76
2018-06-08T09:40:00.797Z,26.01
2018-06-08T09:42:28.921Z,25.91
2018-06-08T09:44:57.485Z,25.81
2018-06-08T09:47:25.596Z,25.94
2018-06-08T09:49:53.702Z,26.28
2018-06-08T09:52:21.851Z,26.31
2018-06-08T09:54:50.021Z,27.01
2018-06-08T09:57:18.136Z,27.26
2018-06-08T09:59:46.224Z,27.34
2018-06-08T10:02:14.428Z,26.35
2018-06-08T10:04:42.537Z,26.29
2018-06-08T10:07:10.756Z,25.74
2018-06-08T10:09:38.836Z,25.38
2018-06-08T10:12:07.029Z,25.27
2018-06-08T10:14:35.273Z,25.98
2018-06-08T10:17:03.413Z,25.83
2018-06-08T10:19:31.522Z,25.58
2018-06-08T10:21:59.963Z,25.14
2018-06-08T10:24:28.138Z,26.02
2018-06-08T10:26:56.972Z,26.63
2018-06-08T10:29:29.536Z,27.38
2018-06-08T10:31:57.785Z,27.39
2018-06-08T10:34:26.247Z,27.48
2018-06-08T10:36:54.578Z,27.90
2018-06-08T10:39:22.698Z,27.79
2018-06-08T10:41:50.808Z,27.71
2018-06-08T10:44:18.978Z,27.68
2018-06-08T10:46:47.149Z,27.71
2018-06-08T10:49:15.385Z,27.90
2018-06-08T10:51:44.233Z,28.12
2018-06-08T10:54:13.103Z,28.31
2018-06-08T10:56:41.241Z,28.29
2018-06-08T10:59:09.364Z,28.55
2018-06-08T11:01:37.505Z,28.94
2018-06-08T11:04:05.742Z,28.51
2018-06-08T11:06:33.921Z,28.19
2018-06-08T11:09:02.533Z,27.92
2018-06-08T11:11:30.602Z,28.68
2018-06-08T11:13:58.828Z,28.40
2018-06-08T11:16:27.032Z,28.40
2018-06-08T11:18:55.209Z,28.67
2018-06-08T11:21:23.376Z,28.67
2018-06-08T11:23:51.598Z,28.80
2018-06-08T11:26:19.755Z,28.15
2018-06-08T11:28:48.024Z,28.17
2018-06-08T11:31:16.102Z,28.06
2018-06-08T11:33:44.279Z,27.43
2018-06-08T11:36:12.422Z,27.50
2018-06-08T11:38:40.637Z,27.69
2018-06-08T11:41:08.897Z,27.96
2018-06-08T11:43:37.117Z,27.76
2018-06-08T11:46:06.162Z,27.53
2018-06-08T11:48:34.250Z,27.49
2018-06-08T11:51:02.473Z,27.60
2018-06-08T11:53:30.653Z,27.17
2018-06-08T11:55:58.816Z,27.33
2018-06-08T11:58:26.829Z,27.28
2018-06-08T12:01:01.679Z,27.10
2018-06-08T12:03:29.930Z,26.98
2018-06-08T12:05:58.106Z,27.86
2018-06-08T12:08:26.303Z,28.36
2018-06-08T12:10:54.577Z,28.13
2018-06-08T12:13:22.685Z,27.64
2018-06-08T12:15:50.852Z,27.88
2018-06-08T12:18:18.989Z,27.44
2018-06-08T12:20:47.197Z,27.42
2018-06-08T12:23:15.226Z,27.77
2018-06-08T12:25:43.614Z,27.91
2018-06-08T12:28:12.027Z,28.00
2018-06-08T12:30:40.317Z,28.13
2018-06-08T12:33:08.670Z,28.33
2018-06-08T12:35:36.902Z,28.25
2018-06-08T12:38:05.145Z,28.77
2018-06-08T12:40:33.316Z,28.89
2018-06-08T12:43:01.553Z,29.06
2018-06-08T12:45:29.699Z,29.07
2018-06-08T12:47:57.839Z,29.58
2018-06-08T12:50:26.027Z,29.64
2018-06-08T12:52:54.095Z,29.64
2018-06-08T12:55:22.273Z,29.42
2018-06-08T12:57:50.489Z,29.64
2018-06-08T13:00:18.645Z,29.28
2018-06-08T13:02:46.750Z,29.72
2018-06-08T13:05:15.191Z,29.29
2018-06-08T13:07:43.441Z,29.87
2018-06-08T13:10:11.984Z,29.48
2018-06-08T13:12:40.285Z,29.32
2018-06-08T13:15:08.470Z,29.10
2018-06-08T13:17:36.616Z,29.24
2018-06-08T13:20:05.031Z,29.05
2018-06-08T13:22:33.597Z,29.35
2018-06-08T13:25:01.787Z,29.50
2018-06-08T13:27:30.061Z,29.35
2018-06-08T13:29:58.226Z,29.31
2018-06-08T13:32:26.462Z,29.62
2018-06-08T13:34:54.625Z,29.47
2018-06-08T13:37:22.854Z,29.66
2018-06-08T13:39:51.049Z,29.12
2018-06-08T13:42:19.387Z,29.45
2018-06-08T13:44:47.626Z,29.45
2018-06-08T13:47:16.313Z,29.23
2018-06-08T13:49:44.561Z,29.20
2018-06-08T13:52:12.775Z,29.05
2018-06-08T13:54:41.014Z,28.93
2018-06-08T13:57:09.253Z,28.80
2018-06-08T13:59:37.498Z,28.63
2018-06-08T14:02:05.600Z,28.46
2018-06-08T14:04:33.821Z,28.22
2018-06-08T14:07:02.036Z,28.27
2018-06-08T14:09:30.244Z,28.35
2018-06-08T14:11:58.478Z,28.50
2018-06-08T14:14:26.590Z,28.68
2018-06-08T14:16:54.846Z,29.21
2018-06-08T14:19:23.106Z,29.57
2018-06-08T14:21:51.227Z,29.68
2018-06-08T14:24:19.982Z,29.72
2018-06-08T14:26:48.169Z,29.83
2018-06-08T14:29:16.331Z,29.58
2018-06-08T14:31:44.558Z,29.30
2018-06-08T14:34:12.762Z,29.35
2018-06-08T14:36:40.994Z,29.10
2018-06-08T14:39:09.169Z,29.10
2018-06-08T14:41:37.348Z,29.16
2018-06-08T14:44:05.509Z,29.11
2018-06-08T14:46:33.702Z,29.20
2018-06-08T14:49:02.066Z,29.41
2018-06-08T14:51:30.427Z,29.77
2018-06-08T14:53:58.624Z,30.09
2018-06-08T14:56:26.747Z,30.29
2018-06-08T14:58:54.875Z,30.07
2018-06-08T15:01:23.579Z,30.24
2018-06-08T15:03:51.778Z,30.05
2018-06-08T15:06:19.932Z,30.17
2018-06-08T15:08:48.187Z,30.26
2018-06-08T15:11:16.375Z,30.13
2018-06-08T15:13:44.656Z,30.11
2018-06-08T15:16:12.953Z,30.15
2018-06-08T15:18:41.207Z,30.20
2018-06-08T15:21:09.362Z,30.13
2018-06-08T15:23:37.805Z,30.20
2018-06-08T15:26:06.009Z,30.13
2018-06-08T15:28:34.144Z,29.80
2018-06-08T15:31:02.353Z,29.19
2018-06-08T15:33:30.456Z,29.22
2018-06-08T15:35:58.725Z,29.58
2018-06-08T15:38:27.390Z,29.76
2018-06-08T15:40:55.597Z,30.08
2018-06-08T15:43:23.830Z,30.18
2018-06-08T15:45:52.109Z,30.16
2018-06-08T15:48:20.346Z,30.34
2018-06-08T15:50:48.491Z,30.44
2018-06-08T15:53:16.657Z,30.46
2018-06-08T15:55:44.820Z,29.86
2018-06-08T15:58:12.915Z,29.87
2018-06-08T16:00:41.243Z,30.28
2018-06-08T16:03:09.370Z,30.35
2018-06-08T16:05:37.573Z,30.25
2018-06-08T16:08:05.859Z,30.25
2018-06-08T16:10:34.024Z,30.13
2018-06-08T16:13:02.270Z,30.37
2018-06-08T16:15:30.950Z,30.34
2018-06-08T16:17:59.186Z,30.27
2018-06-08T16:20:27.623Z,29.67
2018-06-08T16:22:55.772Z,29.43
2018-06-08T16:25:23.972Z,29.32
2018-06-08T16:27:56.322Z,29.29
2018-06-08T16:30:24.530Z,29.45
2018-06-08T16:32:52.669Z,29.66
2018-06-08T16:35:20.937Z,29.70
2018-06-08T16:37:49.307Z,29.57
2018-06-08T16:40:17.656Z,29.50
2018-06-08T16:42:45.951Z,29.28
2018-06-08T16:45:14.216Z,29.36
2018-06-08T16:47:54.755Z,29.64
2018-06-08T16:50:22.982Z,29.76
2018-06-08T16:52:51.254Z,29.73
2018-06-08T16:55:19.580Z,29.79
2018-06-08T16:57:47.835Z,29.53
2018-06-08T17:00:15.957Z,29.55
2018-06-08T17:02:44.157Z,29.57
2018-06-08T17:05:12.408Z,29.46
2018-06-08T17:07:40.516Z,29.48
2018-06-08T17:10:08.716Z,29.29
2018-06-08T17:12:36.851Z,29.20
2018-06-08T17:15:05.173Z,29.06
2018-06-08T17:17:33.646Z,29.23
2018-06-08T17:20:01.891Z,29.25
2018-06-08T17:22:30.119Z,29.37
2018-06-08T17:24:58.328Z,29.18
2018-06-08T17:27:26.732Z,29.04
2018-06-08T17:29:54.938Z,28.50
2018-06-08T17:32:23.081Z,28.85
2018-06-08T17:34:51.284Z,28.83
2018-06-08T17:37:19.523Z,28.65
2018-06-08T17:39:47.739Z,28.59
2018-06-08T17:42:15.929Z,28.43
2018-06-08T17:44:44.184Z,28.43
2018-06-08T17:47:12.372Z,28.46
2018-06-08T17:49:40.682Z,28.51
2018-06-08T17:52:08.819Z,28.50
2018-06-08T17:54:37.861Z,28.36
2018-06-08T17:57:06.282Z,28.30
2018-06-08T17:59:34.739Z,28.24
2018-06-08T18:02:03.214Z,28.25
2018-06-08T18:04:32.236Z,27.93
2018-06-08T18:07:00.512Z,28.02
2018-06-08T18:09:29.251Z,27.83
2018-06-08T18:11:57.631Z,27.72
2018-06-08T18:14:25.905Z,27.66
2018-06-08T18:16:54.227Z,27.68
2018-06-08T18:19:22.477Z,27.52
2018-06-08T18:21:50.853Z,27.45
2018-06-08T18:24:19.011Z,27.29
2018-06-08T18:26:47.217Z,27.37
2018-06-08T18:29:15.512Z,27.39
2018-06-08T18:31:43.956Z,27.33
2018-06-08T18:34:12.321Z,27.49
2018-06-08T18:36:41.205Z,27.58
2018-06-08T18:39:09.438Z,27.52
2018-06-08T18:41:37.590Z,27.49
2018-06-08T18:44:05.764Z,27.56
2018-06-08T18:46:34.038Z,27.59
2018-06-08T18:49:02.432Z,27.27
2018-06-08T18:51:30.782Z,27.25
2018-06-08T18:53:59.021Z,27.24
2018-06-08T18:56:27.158Z,27.10
2018-06-08T18:58:55.273Z,27.03
2018-06-08T19:01:23.465Z,26.76
2018-06-08T19:03:52.634Z,26.52
2018-06-08T19:06:20.766Z,26.36
2018-06-08T19:08:48.930Z,26.30
2018-06-08T19:11:17.180Z,26.10
2018-06-08T19:13:45.570Z,25.90
2018-06-08T19:16:13.824Z,26.03
2018-06-08T19:18:42.020Z,25.63
2018-06-08T19:21:10.192Z,25.49
2018-06-08T19:23:38.603Z,25.43
2018-06-08T19:26:06.878Z,25.63
2018-06-08T19:28:35.154Z,25.74
2018-06-08T19:31:03.460Z,25.90
2018-06-08T19:33:31.550Z,25.87
2018-06-08T19:35:59.862Z,25.81
2018-06-08T19:38:28.140Z,25.60
2018-06-08T19:40:56.362Z,25.46
2018-06-08T19:43:24.536Z,25.56
2018-06-08T19:45:52.873Z,25.80
2018-06-08T19:48:21.040Z,25.46
2018-06-08T19:50:49.258Z,25.05
2018-06-08T19:53:17.573Z,24.51
2018-06-08T19:55:46.156Z,23.71
2018-06-08T19:58:14.322Z,23.18
2018-06-08T20:00:42.462Z,22.95
2018-06-08T20:03:10.699Z,22.81
2018-06-08T20:05:38.948Z,22.53
2018-06-08T20:08:07.250Z,22.18
2018-06-08T20:10:35.737Z,22.03
2018-06-08T20:13:04.054Z,21.93
2018-06-08T20:15:32.345Z,21.79
2018-06-08T20:18:00.531Z,21.61
2018-06-08T20:20:28.779Z,21.44
2018-06-08T20:22:56.996Z,21.47
2018-06-08T20:25:25.241Z,21.58
2018-06-08T20:27:53.440Z,21.40
2018-06-08T20:30:21.699Z,21.55
2018-06-08T20:32:50.536Z,21.41
2018-06-08T20:35:18.738Z,21.40
2018-06-08T20:37:47.289Z,21.47
2018-06-08T20:40:15.478Z,21.55
2018-06-08T20:42:43.703Z,21.44
2018-06-08T20:45:11.994Z,21.38
2018-06-08T20:47:40.114Z,21.18
2018-06-08T20:50:08.965Z,21.13
2018-06-08T20:52:37.104Z,20.96
2018-06-08T20:55:05.409Z,21.10
2018-06-08T20:57:33.562Z,21.11
2018-06-08T21:00:01.722Z,20.92
2018-06-08T21:02:29.984Z,20.88
2018-06-08T21:04:58.122Z,21.11
2018-06-08T21:07:26.320Z,21.00
2018-06-08T21:09:54.989Z,20.78
2018-06-08T21:12:23.161Z,20.63
2018-06-08T21:14:51.231Z,20.71
2018-06-08T21:17:19.428Z,20.76
2018-06-08T21:19:47.782Z,20.91
2018-06-08T21:22:15.959Z,21.03
2018-06-08T21:24:45.292Z,20.91
2018-06-08T21:27:13.453Z,20.93
2018-06-08T21:29:41.601Z,20.82
2018-06-08T21:32:10.581Z,20.86
2018-06-08T21:34:38.591Z,20.90
2018-06-08T21:37:06.858Z,20.71
2018-06-08T21:39:35.010Z,20.69
2018-06-08T21:42:03.147Z,20.85
2018-06-08T21:44:31.376Z,20.76
2018-06-08T21:46:59.540Z,20.77
2018-06-08T21:49:27.830Z,20.90
2018-06-08T21:51:56.410Z,20.81
2018-06-08T21:54:24.649Z,20.77
2018-06-08T21:56:52.823Z,20.83
2018-06-08T21:59:21.216Z,20.74
2018-06-08T22:01:50.162Z,20.79
2018-06-08T22:04:18.400Z,20.83
2018-06-08T22:06:46.661Z,20.58
2018-06-08T22:09:17.727Z,20.56
2018-06-08T22:11:46.239Z,20.69
2018-06-08T22:14:14.565Z,20.92
2018-06-08T22:16:42.848Z,20.58
2018-06-08T22:19:11.095Z,20.73
2018-06-08T22:21:39.393Z,20.68
2018-06-08T22:24:07.580Z,20.78
2018-06-08T22:26:35.919Z,20.61
2018-06-08T22:29:04.074Z,20.60
2018-06-08T22:31:32.290Z,20.77
2018-06-08T22:34:00.967Z,20.78
2018-06-08T22:36:29.169Z,20.56
2018-06-08T22:38:57.487Z,20.75
2018-06-08T22:41:25.678Z,20.51
2018-06-08T22:43:53.822Z,20.61
2018-06-08T22:46:22.111Z,20.59
2018-06-08T22:48:50.357Z,20.83
2018-06-08T22:51:18.507Z,20.81
2018-06-08T22:53:46.635Z,20.68
2018-06-08T22:56:14.973Z,20.49
2018-06-08T22:58:43.107Z,20.39
2018-06-08T23:01:11.293Z,20.57
2018-06-08T23:03:39.481Z,20.46
2018-06-08T23:06:07.642Z,20.59
2018-06-08T23:08:40.392Z,20.73
2018-06-08T23:11:08.998Z,20.66
2018-06-08T23:13:37.302Z,20.69
2018-06-08T23:16:07.137Z,20.76
2018-06-08T23:18:35.486Z,20.58
2018-06-08T23:21:04.150Z,20.52
2018-06-08T23:23:32.539Z,20.56
2018-06-08T23:26:01.002Z,20.66
2018-06-08T23:28:29.403Z,20.50
2018-06-08T23:30:58.181Z,20.35
2018-06-08T23:33:27.081Z,20.32
2018-06-08T23:35:56.533Z,20.28
2018-06-08T23:38:24.896Z,20.32
2018-06-08T23:40:53.023Z,20.22
2018-06-08T23:43:21.150Z,20.24
2018-06-08T23:45:49.382Z,20.11
2018-06-08T23:48:17.686Z,20.38
2018-06-08T23:50:45.973Z,20.18
2018-06-08T23:53:14.485Z,20.24
2018-06-08T23:55:43.578Z,20.16
2018-06-08T23:58:14.483Z,20.13
